< < Back
Terminal Aerodrome Forecast


Current Version              Previous Versions:   1  2  3  4  5  6  7  8  9  

Terminal Aerodrome Forecast

149
FTUS42 KGSP 281100
TAFHKY
TAF
KHKY 281136Z 2812/2912 00000KT P6SM SKC
     FM281400 33003KT P6SM FEW050
     FM282100 20005KT P6SM SCT050=

Latest METAR

252
SAUS70 KWBC 281300 RRC
MTRHKY
METAR KHKY 281253Z 31004KT 10SM CLR 22/17 A3007 RMK AO2 SLP160
T02170167


USA.gov is the U.S. government's official web portal to all federal, state and local government web resources and services.